OIAH  Gachsaran  Airport

Gachsaran, Iran

Add Bookmark
ICAO OIAH
Type Airport
Status Operational
Latitude
30° 20' 15" N
30.337601
Longitude
50° 49' 40" E
50.827999
Local (DST + 5) UTC (GMT + 4)
Aug 28, 2015 11:57 Aug 28, 2015 07:27
Sunrise-Sunset Local UTC
Begin Civil Twilight 06:15 01:45
Sunrise 06:39 02:09
Sunset 07:36 15:06
End Civil Twilight 08:00 15:30
VFR
VFR
MVFR
MVFR
IFR
IFR
LIFR
LIFR
Unknown
Unavailable

Current Weather

METAR Observed VFR
OIAH 280700Z 00000KT CAVOK 42/M03 Q1010 Fri, Aug 28, 2015 @ 07:00 UTC
(27 Minutes ago)
Visual Flight Rules
Wind Visibility Conditions
Calm 10 km or more
  • No significant weather
Temperatures Readings Precipitation
Current Temp
42°C
108°F
Dewpoint
-3°C
27°F
Humidity 6%
Altimeter 29.82" Hg
Sea Level Pressure 1,010 mb
Field Elevation
738 m
2,421 ft
None Recorded

Additional weather within a 92.6km radius of OIAH

Map ICAO Location
OISY 79.6km E/NE (059°)
VFR
VFR
MVFR
MVFR
IFR
IFR
LIFR
LIFR
Unknown
Unavailable
-
-

CheckWX.com is intended as a tool to help pilots better visualize weather data. It is not intended as a substitute for an official weather briefing obtained from a Flight Service Station. CheckWX.com does not meet the FAA requirements for an official pre-flight weather briefing. Therefore, it's important that pilots still call and obtain an official FSS pre-flight weather briefing.

© 2007-2015 CheckWX.com
07:27:23 UTC